Time;durP1;ratioP1;P1;durP2;ratioP2;P2;SDS_P1;SDS_P2;PMS_P1;PMS_P2;Temp;Humidity;BMP_temperature;BMP_pressure;BME280_temperature;BME280_humidity;BME280_pressure;Samples;Min_cycle;Max_cycle;Signal;HPM_P1;HPM_P2
2021/08/17 00:01:33;;;;;;;1.73;1.02;;;;;;;16.61;60.62;99498.47;4989101;28;105913;-66
2021/08/17 00:03:58;;;;;;;2.05;0.93;;;;;;;16.58;60.93;99499.75;4989257;28;105884;-66
2021/08/17 00:06:23;;;;;;;1.63;1.00;;;;;;;16.56;60.93;99501.03;4989928;28;105885;-65
2021/08/17 00:08:48;;;;;;;2.10;1.02;;;;;;;16.52;60.89;99500.66;4989551;28;106261;-67
2021/08/17 00:11:14;;;;;;;2.22;0.90;;;;;;;16.50;60.81;99497.38;4988960;28;105739;-66
2021/08/17 00:13:40;;;;;;;3.47;1.13;;;;;;;16.46;60.89;99492.66;4988883;28;105795;-64
2021/08/17 00:16:05;;;;;;;2.70;1.25;;;;;;;16.41;60.86;99478.03;4989679;28;106083;-66
2021/08/17 00:18:31;;;;;;;2.85;0.88;;;;;;;16.39;61.18;99487.41;4988962;28;106175;-66
2021/08/17 00:20:56;;;;;;;2.90;0.88;;;;;;;16.35;60.83;99488.91;4989053;28;105940;-67
2021/08/17 00:23:21;;;;;;;3.35;1.25;;;;;;;16.33;60.91;99496.34;4988966;28;105843;-63
2021/08/17 00:25:47;;;;;;;2.38;1.23;;;;;;;16.30;61.06;99496.81;4989886;28;105775;-63
2021/08/17 00:28:12;;;;;;;3.00;1.30;;;;;;;16.27;61.37;99503.44;4989008;28;106135;-64
2021/08/17 00:30:38;;;;;;;1.88;1.00;;;;;;;16.27;61.34;99499.94;4988810;28;105775;-66
2021/08/17 00:33:04;;;;;;;3.17;1.30;;;;;;;16.27;61.36;99494.56;4988749;28;105783;-67
2021/08/17 00:35:29;;;;;;;3.58;1.30;;;;;;;16.25;61.10;99500.16;4988863;28;106034;-65
2021/08/17 00:37:54;;;;;;;4.43;1.23;;;;;;;16.23;61.15;99508.44;4988516;28;107502;-66
2021/08/17 00:40:20;;;;;;;4.32;1.33;;;;;;;16.23;61.29;99497.69;4988769;28;106003;-64
2021/08/17 00:42:47;;;;;;;3.72;1.40;;;;;;;16.19;61.52;99488.44;4988037;28;105975;-67
2021/08/17 00:45:13;;;;;;;3.00;1.52;;;;;;;16.16;61.62;99485.38;4989403;28;105835;-67
2021/08/17 00:47:40;;;;;;;2.40;1.30;;;;;;;16.10;61.45;99480.91;4988553;28;106169;-64
2021/08/17 00:50:06;;;;;;;3.85;1.35;;;;;;;16.05;62.02;99473.53;4986637;28;105993;-62
2021/08/17 00:52:31;;;;;;;3.60;1.45;;;;;;;15.98;61.78;99476.28;4987867;28;106087;-65
2021/08/17 00:54:56;;;;;;;2.97;1.50;;;;;;;15.94;61.87;99482.28;4988954;28;106014;-63
2021/08/17 00:57:22;;;;;;;2.95;1.33;;;;;;;15.87;61.99;99482.41;4988463;28;106212;-67
2021/08/17 00:59:47;;;;;;;2.55;1.40;;;;;;;15.81;62.37;99477.91;4987952;28;106079;-65
2021/08/17 01:02:13;;;;;;;4.43;1.40;;;;;;;15.74;62.55;99473.38;4988184;28;106035;-64
2021/08/17 01:04:39;;;;;;;3.72;1.35;;;;;;;15.69;62.33;99472.41;4988852;28;106409;-64
2021/08/17 01:07:08;;;;;;;4.40;1.35;;;;;;;15.62;62.59;99479.69;4988343;28;105985;-62
2021/08/17 01:09:35;;;;;;;4.00;1.20;;;;;;;15.55;62.95;99485.97;4987876;28;106638;-64
2021/08/17 01:12:01;;;;;;;2.80;1.38;;;;;;;15.52;62.94;99489.06;4987982;28;105806;-64
2021/08/17 01:14:27;;;;;;;2.58;1.15;;;;;;;15.48;62.83;99471.75;4988611;28;105996;-66
2021/08/17 01:16:53;;;;;;;3.20;0.95;;;;;;;15.43;62.94;99474.28;4987833;28;108280;-66
2021/08/17 01:19:19;;;;;;;2.38;1.20;;;;;;;15.37;63.05;99467.94;4987726;28;105750;-64
2021/08/17 01:21:46;;;;;;;3.42;1.20;;;;;;;15.33;63.27;99471.28;4987678;28;106076;-65
2021/08/17 01:24:12;;;;;;;3.33;1.20;;;;;;;15.31;63.47;99478.72;4988708;28;105810;-64
2021/08/17 01:26:37;;;;;;;2.60;1.10;;;;;;;15.31;63.47;99484.09;4990964;28;106105;-62
2021/08/17 01:29:03;;;;;;;3.25;1.13;;;;;;;15.29;63.64;99483.50;4991066;28;106215;-63
2021/08/17 01:31:30;;;;;;;4.32;1.20;;;;;;;15.30;63.64;99487.81;4991108;28;105842;-63
2021/08/17 01:33:55;;;;;;;2.45;1.20;;;;;;;15.29;64.03;99491.53;4991593;28;105942;-63
2021/08/17 01:36:20;;;;;;;2.17;1.00;;;;;;;15.29;64.02;99491.53;4991404;28;106143;-62
2021/08/17 01:38:47;;;;;;;2.40;1.20;;;;;;;15.29;63.90;99491.53;4990568;28;106090;-64
2021/08/17 01:41:13;;;;;;;2.97;1.20;;;;;;;15.29;63.94;99497.72;4990560;28;105869;-66
2021/08/17 01:43:38;;;;;;;2.65;1.10;;;;;;;15.27;63.93;99504.34;4991874;28;105932;-62
2021/08/17 01:46:04;;;;;;;1.83;1.00;;;;;;;15.26;63.98;99502.72;4991050;28;106707;-62
2021/08/17 01:48:32;;;;;;;4.28;1.30;;;;;;;15.25;63.96;99501.88;4990262;28;106095;-62
2021/08/17 01:50:59;;;;;;;2.92;0.90;;;;;;;15.23;63.85;99512.03;4990716;28;106071;-63
2021/08/17 01:53:32;;;;;;;3.03;1.33;;;;;;;15.21;63.47;99517.59;4991272;28;105961;-62
2021/08/17 01:56:05;;;;;;;2.10;1.05;;;;;;;15.18;63.48;99514.53;4991305;28;106225;-62
2021/08/17 01:58:31;;;;;;;3.67;1.13;;;;;;;15.15;63.25;99526.50;4990618;28;106038;-63
2021/08/17 02:00:56;;;;;;;3.05;1.17;;;;;;;15.12;62.92;99532.31;4990723;28;105892;-65
2021/08/17 02:03:22;;;;;;;2.80;0.90;;;;;;;15.09;63.00;99529.22;4991273;28;106173;-63
2021/08/17 02:05:47;;;;;;;1.85;0.90;;;;;;;15.06;62.39;99530.47;4990872;28;106008;-62
2021/08/17 02:08:12;;;;;;;3.25;1.13;;;;;;;14.99;62.58;99533.19;4990552;28;106634;-61
2021/08/17 02:10:40;;;;;;;4.05;1.50;;;;;;;14.96;62.31;99540.88;4990340;28;106044;-63
2021/08/17 02:13:05;;;;;;;3.90;1.17;;;;;;;14.92;62.26;99542.34;4991326;28;105812;-65
2021/08/17 02:15:31;;;;;;;2.13;0.95;;;;;;;14.88;61.79;99537.41;4990787;28;106111;-63
2021/08/17 02:17:57;;;;;;;9.50;5.32;;;;;;;14.86;62.09;99547.50;4990106;28;105972;-62
2021/08/17 02:20:22;;;;;;;4.15;1.30;;;;;;;14.85;61.56;99542.38;4990264;28;106173;-62
2021/08/17 02:22:47;;;;;;;3.47;1.30;;;;;;;14.79;61.44;99549.41;4991266;28;106167;-62
2021/08/17 02:25:13;;;;;;;3.63;1.02;;;;;;;14.77;61.15;99543.44;4990557;28;105931;-65
2021/08/17 02:27:39;;;;;;;4.45;1.30;;;;;;;14.70;61.24;99551.50;4990167;28;106084;-65
2021/08/17 02:30:05;;;;;;;3.38;1.30;;;;;;;14.64;61.54;99555.03;4989750;28;106046;-63
2021/08/17 02:32:30;;;;;;;1.58;0.98;;;;;;;14.63;61.40;99560.63;4990795;28;106045;-69
2021/08/17 02:34:57;;;;;;;2.15;0.98;;;;;;;14.56;61.48;99566.78;4990357;28;106151;-64
2021/08/17 02:37:22;;;;;;;5.03;1.50;;;;;;;14.51;61.58;99569.28;4989854;28;106725;-63
2021/08/17 02:39:49;;;;;;;2.35;1.10;;;;;;;14.46;61.58;99565.59;4989781;28;106365;-61
2021/08/17 02:42:14;;;;;;;3.60;1.23;;;;;;;14.41;61.91;99571.59;4990280;28;106073;-67
2021/08/17 02:44:39;;;;;;;4.32;1.73;;;;;;;14.35;62.17;99567.91;4990105;28;106127;-65
2021/08/17 02:47:05;;;;;;;3.10;1.27;;;;;;;14.32;62.36;99556.75;4989744;28;106136;-63
2021/08/17 02:49:33;;;;;;;4.50;1.42;;;;;;;14.27;62.49;99559.25;4989755;28;105854;-67
2021/08/17 02:52:03;;;;;;;4.28;1.38;;;;;;;14.24;62.55;99559.66;4990332;28;105878;-68
2021/08/17 02:54:29;;;;;;;;;;;;;;;14.20;62.34;99565.47;4990108;28;106010;-64
2021/08/17 02:56:54;;;;;;;2.90;1.23;;;;;;;14.15;62.59;99561.75;4989613;28;106450;-64
2021/08/17 02:59:19;;;;;;;5.43;1.50;;;;;;;14.12;62.82;99567.53;4988435;28;106218;-64
2021/08/17 03:01:44;;;;;;;5.25;1.80;;;;;;;14.08;63.00;99561.78;4990225;28;105841;-64
2021/08/17 03:04:10;;;;;;;5.80;1.60;;;;;;;14.06;63.14;99571.84;4990149;28;106187;-68
2021/08/17 03:06:35;;;;;;;5.22;2.00;;;;;;;14.04;63.33;99572.06;4989394;28;105998;-68
2021/08/17 03:09:00;;;;;;;3.53;1.50;;;;;;;14.03;63.16;99573.09;4989537;28;106029;-63
2021/08/17 03:11:26;;;;;;;4.97;1.83;;;;;;;14.00;63.22;99576.19;4990141;28;105999;-63
2021/08/17 03:13:51;;;;;;;4.18;1.80;;;;;;;13.99;63.47;99579.91;4989532;28;106845;-67
2021/08/17 03:16:16;;;;;;;5.13;1.70;;;;;;;13.97;63.34;99586.50;4989128;28;106020;-64
2021/08/17 03:18:42;;;;;;;4.40;1.65;;;;;;;13.93;63.66;99570.03;4988780;28;105822;-64
2021/08/17 03:21:07;;;;;;;4.72;1.80;;;;;;;13.87;63.87;99571.69;4990237;28;105888;-64
2021/08/17 03:23:33;;;;;;;5.68;1.80;;;;;;;13.85;63.95;99576.41;4989445;28;106092;-65
2021/08/17 03:25:58;;;;;;;5.00;1.70;;;;;;;13.84;64.33;99573.94;4989272;28;105986;-63
2021/08/17 03:28:24;;;;;;;5.63;2.05;;;;;;;13.82;64.61;99582.19;4987767;28;106034;-64
2021/08/17 03:30:49;;;;;;;8.43;3.13;;;;;;;13.79;64.71;99579.94;4990100;28;105861;-62
2021/08/17 03:33:15;;;;;;;2.67;1.50;;;;;;;13.77;65.04;99583.84;4989437;28;106134;-63
2021/08/17 03:35:40;;;;;;;5.70;1.70;;;;;;;13.73;65.17;99594.13;4989212;28;106041;-64
2021/08/17 03:38:06;;;;;;;7.00;1.95;;;;;;;13.69;65.28;99590.22;4988867;28;105951;-67
2021/08/17 03:40:31;;;;;;;5.95;2.30;;;;;;;13.68;65.62;99591.22;4989680;28;105922;-62
2021/08/17 03:42:57;;;;;;;9.57;3.20;;;;;;;13.65;65.76;99588.97;4989080;28;106317;-62
2021/08/17 03:45:22;;;;;;;6.40;1.60;;;;;;;13.59;65.92;99601.31;4988842;28;106400;-65
2021/08/17 03:47:50;;;;;;;4.03;1.55;;;;;;;13.52;65.92;99605.84;4988501;28;106253;-62
2021/08/17 03:50:16;;;;;;;4.22;1.92;;;;;;;13.47;66.44;99606.44;4989539;28;106165;-62
2021/08/17 03:52:42;;;;;;;4.53;1.70;;;;;;;13.47;66.51;99608.31;4989307;28;105988;-61
2021/08/17 03:55:08;;;;;;;3.92;1.42;;;;;;;13.44;66.68;99617.56;4988858;28;105971;-64
2021/08/17 03:57:33;;;;;;;4.03;1.80;;;;;;;13.42;66.99;99622.28;4988806;28;106701;-63
2021/08/17 03:59:58;;;;;;;4.50;1.70;;;;;;;13.40;66.79;99623.53;4988396;28;106022;-62
2021/08/17 04:02:24;;;;;;;3.85;1.60;;;;;;;13.37;67.13;99620.22;4989040;28;106865;-65
2021/08/17 04:04:49;;;;;;;5.47;2.00;;;;;;;13.37;67.45;99632.78;4988758;28;105783;-64
2021/08/17 04:07:15;;;;;;;5.25;1.85;;;;;;;13.34;67.29;99633.13;4988323;28;106541;-65
2021/08/17 04:09:40;;;;;;;4.50;1.75;;;;;;;13.33;67.70;99628.84;4989139;28;105943;-65
2021/08/17 04:12:06;;;;;;;2.78;1.90;;;;;;;13.33;67.68;99634.19;4988578;28;106002;-65
2021/08/17 04:14:32;;;;;;;5.07;2.05;;;;;;;13.32;67.73;99628.00;4988056;28;106533;-64
2021/08/17 04:16:57;;;;;;;3.65;1.67;;;;;;;13.30;67.85;99626.53;4987643;28;106963;-65
2021/08/17 04:19:26;;;;;;;5.22;2.08;;;;;;;13.28;68.03;99628.59;4989209;28;106035;-63
2021/08/17 04:21:52;;;;;;;4.90;1.70;;;;;;;13.24;68.00;99622.81;4987927;28;105908;-62
2021/08/17 04:24:18;;;;;;;3.58;1.60;;;;;;;13.23;68.18;99625.72;4988191;28;105947;-62
2021/08/17 04:26:43;;;;;;;4.07;2.33;;;;;;;13.24;68.09;99619.34;4987259;28;106681;-61
2021/08/17 04:29:09;;;;;;;4.57;2.08;;;;;;;13.25;68.41;99624.47;4988625;28;106126;-63
2021/08/17 04:31:34;;;;;;;6.10;2.20;;;;;;;13.23;68.13;99631.06;4988187;28;106413;-61
2021/08/17 04:34:00;;;;;;;4.47;1.50;;;;;;;13.23;68.54;99628.38;4987865;28;106928;-62
2021/08/17 04:36:25;;;;;;;7.35;3.58;;;;;;;13.26;68.48;99630.66;4988055;28;106935;-61
2021/08/17 04:38:50;;;;;;;6.32;2.08;;;;;;;13.26;68.76;99636.84;4988450;28;105977;-61
2021/08/17 04:41:16;;;;;;;4.88;2.10;;;;;;;13.27;68.74;99629.63;4988439;28;106217;-62
2021/08/17 04:43:41;;;;;;;4.97;1.75;;;;;;;13.28;68.55;99636.63;4987997;28;111114;-64
2021/08/17 04:46:06;;;;;;;4.82;1.77;;;;;;;13.29;68.46;99639.09;4988020;28;105896;-61
2021/08/17 04:48:32;;;;;;;3.17;1.60;;;;;;;13.33;68.90;99640.34;4988889;28;105870;-61
2021/08/17 04:50:58;;;;;;;4.80;2.00;;;;;;;13.37;68.87;99646.97;4987512;28;106266;-63
2021/08/17 04:53:25;;;;;;;5.15;2.17;;;;;;;13.42;68.48;99649.03;4987958;28;106312;-62
2021/08/17 04:55:50;;;;;;;5.25;2.00;;;;;;;13.44;68.63;99646.19;4987402;28;106115;-62
2021/08/17 04:58:15;;;;;;;7.53;1.98;;;;;;;13.49;68.82;99655.25;4988559;28;106190;-62
2021/08/17 05:00:45;;;;;;;4.10;1.88;;;;;;;13.48;68.48;99658.94;4989845;28;105861;-66
2021/08/17 05:03:11;;;;;;;6.87;1.90;;;;;;;13.50;68.35;99654.19;4991278;28;106143;-62
2021/08/17 05:05:36;;;;;;;4.70;1.90;;;;;;;13.53;68.17;99655.66;4991071;28;106000;-62
2021/08/17 05:08:09;;;;;;;4.10;1.67;;;;;;;13.58;68.13;99663.91;4992325;28;105984;-63
2021/08/17 05:10:35;;;;;;;3.80;1.92;;;;;;;13.60;67.91;99666.38;4991621;28;106158;-61
2021/08/17 05:13:02;;;;;;;5.53;2.13;;;;;;;13.61;68.19;99676.06;4991555;28;106623;-64
2021/08/17 05:15:28;;;;;;;6.85;2.67;;;;;;;13.66;67.80;99670.91;4990905;28;106444;-61
2021/08/17 05:17:54;;;;;;;5.28;2.05;;;;;;;13.66;67.90;99670.91;4991883;28;106068;-65
2021/08/17 05:20:19;;;;;;;6.97;2.13;;;;;;;13.68;67.67;99679.56;4988543;28;106365;-65
2021/08/17 05:22:45;;;;;;;6.70;1.95;;;;;;;13.68;67.59;99679.56;4995969;28;106571;-61
2021/08/17 05:25:11;;;;;;;3.85;1.85;;;;;;;13.72;67.65;99675.44;4990433;28;106302;-62
2021/08/17 05:27:36;;;;;;;5.30;2.03;;;;;;;13.74;67.02;99678.75;4991276;28;106257;-62
2021/08/17 05:30:02;;;;;;;6.68;2.30;;;;;;;13.73;67.16;99685.13;4991109;28;106311;-62
2021/08/17 05:32:28;;;;;;;4.13;2.30;;;;;;;13.75;66.96;99688.44;4972585;28;106676;-61
2021/08/17 05:34:53;;;;;;;5.55;1.90;;;;;;;13.76;67.07;99687.38;4971055;28;106209;-64
2021/08/17 05:37:18;;;;;;;4.88;2.30;;;;;;;13.79;66.95;99688.84;4979045;28;105835;-62
2021/08/17 05:39:44;;;;;;;5.13;2.40;;;;;;;13.81;66.74;99695.66;4990749;28;106313;-63
2021/08/17 05:42:10;;;;;;;4.75;2.22;;;;;;;13.84;66.74;99695.22;4990485;28;106091;-63
2021/08/17 05:44:40;;;;;;;4.97;2.53;;;;;;;13.85;66.32;99710.28;4990132;28;105862;-65
2021/08/17 05:47:06;;;;;;;5.80;2.65;;;;;;;13.88;66.38;99714.41;4991347;28;105808;-64
2021/08/17 05:49:31;;;;;;;4.88;2.10;;;;;;;13.88;66.07;99715.22;4990847;28;106161;-63
2021/08/17 05:51:57;;;;;;;5.25;2.97;;;;;;;13.90;66.21;99719.53;4990470;28;105944;-62
2021/08/17 05:54:23;;;;;;;6.93;2.90;;;;;;;13.97;66.40;99723.06;4990122;28;106309;-63
2021/08/17 05:56:49;;;;;;;4.50;2.17;;;;;;;14.01;65.86;99724.28;4983668;28;106184;-63
2021/08/17 05:59:15;;;;;;;6.30;2.88;;;;;;;14.05;65.84;99728.22;4986499;28;106253;-63
2021/08/17 06:01:40;;;;;;;5.95;2.70;;;;;;;14.10;65.62;99723.06;4970301;28;106010;-62
2021/08/17 06:04:06;;;;;;;7.70;2.85;;;;;;;14.15;65.56;99725.97;4969858;28;110114;-62
2021/08/17 06:06:31;;;;;;;4.22;2.58;;;;;;;14.19;65.18;99708.47;4984706;28;106018;-63
2021/08/17 06:08:56;;;;;;;7.22;3.15;;;;;;;14.24;64.97;99715.06;4989814;28;106300;-62
2021/08/17 06:11:22;;;;;;;4.28;2.63;;;;;;;14.27;64.76;99714.63;4984891;28;105956;-62
2021/08/17 06:13:48;;;;;;;8.65;2.83;;;;;;;14.30;64.63;99716.91;4970320;28;105959;-64
2021/08/17 06:16:14;;;;;;;6.53;2.40;;;;;;;14.37;64.57;99715.06;4971013;28;106594;-63
2021/08/17 06:18:39;;;;;;;7.25;2.80;;;;;;;14.47;64.23;99720.00;4970444;28;105915;-62
2021/08/17 06:21:04;;;;;;;7.53;2.83;;;;;;;14.54;64.44;99727.00;4970190;28;105976;-65
2021/08/17 06:23:30;;;;;;;5.50;2.25;;;;;;;14.66;63.97;99718.34;4975922;28;106033;-63
2021/08/17 06:25:55;;;;;;;5.65;2.92;;;;;;;14.77;63.94;99720.38;4990954;28;105846;-63
2021/08/17 06:28:21;;;;;;;5.78;2.78;;;;;;;14.96;63.82;99720.56;4990328;28;105804;-63
2021/08/17 06:30:46;;;;;;;5.00;2.67;;;;;;;15.05;63.00;99722.00;4989647;28;106083;-64
2021/08/17 06:33:11;;;;;;;7.32;2.38;;;;;;;15.11;62.85;99725.69;4989526;28;106051;-66
2021/08/17 06:35:37;;;;;;;5.05;2.60;;;;;;;15.21;62.51;99726.88;4990905;28;106433;-64
2021/08/17 06:38:02;;;;;;;5.90;2.65;;;;;;;15.35;62.38;99729.50;4989689;28;106280;-67
2021/08/17 06:40:28;;;;;;;5.35;2.50;;;;;;;15.49;62.52;99722.22;4989886;28;106199;-66
2021/08/17 06:42:53;;;;;;;4.20;2.33;;;;;;;15.57;61.72;99733.53;4989567;28;106078;-65
2021/08/17 06:45:19;;;;;;;4.93;2.35;;;;;;;15.65;61.30;99742.38;4990652;28;106045;-63
2021/08/17 06:47:53;;;;;;;5.65;2.38;;;;;;;15.73;61.26;99740.28;4990006;28;105826;-64
2021/08/17 06:50:19;;;;;;;6.50;2.67;;;;;;;15.74;60.55;99741.09;4989621;28;107312;-63
2021/08/17 06:52:45;;;;;;;5.90;2.75;;;;;;;15.79;60.66;99746.66;4989558;28;105878;-66
2021/08/17 06:55:11;;;;;;;5.07;2.30;;;;;;;15.96;60.42;99751.53;4991022;28;106013;-63
2021/08/17 06:57:38;;;;;;;3.20;1.52;;;;;;;16.10;59.57;99755.75;4989605;28;106429;-65
2021/08/17 07:00:06;;;;;;;4.55;2.65;;;;;;;16.18;59.00;99746.63;4989307;28;106100;-63
2021/08/17 07:02:31;;;;;;;5.95;2.05;;;;;;;16.31;59.02;99762.66;4989284;28;105783;-68
2021/08/17 07:04:56;;;;;;;4.55;2.13;;;;;;;16.49;58.99;99748.44;4989172;28;105950;-67
2021/08/17 07:07:21;;;;;;;7.25;2.05;;;;;;;16.63;57.43;99753.72;4989236;28;106239;-63
2021/08/17 07:09:47;;;;;;;7.35;2.13;;;;;;;16.65;57.89;99751.59;4988938;28;105996;-63
2021/08/17 07:12:13;;;;;;;4.82;2.28;;;;;;;16.62;57.69;99747.53;4988910;28;106116;-65
2021/08/17 07:14:39;;;;;;;2.85;1.70;;;;;;;16.54;56.89;99759.38;4989670;28;106023;-63
2021/08/17 07:17:04;;;;;;;5.90;2.10;;;;;;;16.37;57.33;99760.97;4987649;28;106276;-63
2021/08/17 07:19:31;;;;;;;6.13;2.10;;;;;;;16.31;57.10;99772.59;4988977;28;105810;-63
2021/08/17 07:21:56;;;;;;;3.63;2.08;;;;;;;16.23;57.40;99779.88;4988413;28;105888;-67
2021/08/17 07:24:22;;;;;;;4.72;1.77;;;;;;;16.12;57.32;99763.63;4989053;28;105990;-64
2021/08/17 07:26:47;;;;;;;5.32;1.95;;;;;;;16.00;57.45;99776.94;4989529;28;105904;-66
2021/08/17 07:29:13;;;;;;;4.10;2.03;;;;;;;15.96;57.93;99764.97;4989152;28;105956;-66
2021/08/17 07:31:38;;;;;;;6.93;2.15;;;;;;;16.00;57.99;99774.25;4989119;28;105822;-65
2021/08/17 07:34:05;;;;;;;5.30;1.80;;;;;;;16.02;58.10;99777.53;4989572;28;105964;-62
2021/08/17 07:36:32;;;;;;;4.00;2.20;;;;;;;16.06;57.80;99770.66;4988762;28;106260;-63
2021/08/17 07:38:57;;;;;;;4.00;1.70;;;;;;;16.09;58.04;99775.63;5008139;28;107087;-63
2021/08/17 07:41:22;;;;;;;8.93;1.80;;;;;;;16.02;57.49;99774.84;5008505;28;105789;-62
2021/08/17 07:43:48;;;;;;;6.47;2.35;;;;;;;15.96;57.61;99781.09;5009469;28;105882;-62
2021/08/17 07:46:13;;;;;;;5.10;1.90;;;;;;;15.84;57.41;99783.63;5008728;28;105727;-62
2021/08/17 07:48:39;;;;;;;3.58;1.75;;;;;;;15.71;57.74;99777.25;5008554;28;105866;-63
2021/08/17 07:51:04;;;;;;;3.53;1.60;;;;;;;15.69;57.84;99775.81;5008355;28;105779;-64
2021/08/17 07:53:30;;;;;;;4.53;1.80;;;;;;;15.64;58.01;99778.34;5009163;28;105989;-64
2021/08/17 07:55:55;;;;;;;3.47;1.77;;;;;;;15.57;58.10;99773.81;5008936;28;106162;-63
2021/08/17 07:58:20;;;;;;;3.50;1.65;;;;;;;15.62;58.67;99783.09;5008218;28;106266;-63
2021/08/17 08:00:46;;;;;;;6.90;2.05;;;;;;;15.65;58.40;99780.81;5008655;28;105899;-65
2021/08/17 08:03:11;;;;;;;4.15;1.90;;;;;;;15.68;58.61;99780.38;5009413;28;105858;-63
2021/08/17 08:05:37;;;;;;;3.40;1.50;;;;;;;15.67;57.96;99778.72;5008717;28;106305;-64
2021/08/17 08:08:02;;;;;;;3.95;1.63;;;;;;;15.65;58.37;99779.97;5007708;28;106026;-66
2021/08/17 08:10:28;;;;;;;5.85;2.05;;;;;;;15.67;58.62;99785.97;5007952;28;105968;-67
2021/08/17 08:12:54;;;;;;;12.80;2.30;;;;;;;15.70;58.18;99786.34;5008633;28;106077;-66
2021/08/17 08:15:19;;;;;;;6.72;2.10;;;;;;;15.77;58.73;99789.00;5008729;28;106208;-66
2021/08/17 08:17:44;;;;;;;4.07;1.65;;;;;;;15.98;58.72;99790.56;5008140;28;105888;-66
2021/08/17 08:20:10;;;;;;;4.82;1.95;;;;;;;16.34;58.35;99799.03;5007978;28;106966;-67
2021/08/17 08:22:36;;;;;;;3.97;2.20;;;;;;;16.67;57.31;99806.00;5008925;28;106469;-66
2021/08/17 08:25:02;;;;;;;4.30;1.88;;;;;;;16.82;56.52;99808.38;5008000;28;105970;-69
2021/08/17 08:27:28;;;;;;;4.18;1.85;;;;;;;16.86;56.62;99794.25;5008265;28;106078;-62
2021/08/17 08:29:53;;;;;;;4.38;1.73;;;;;;;16.90;56.43;99800.84;5008258;28;105850;-64
2021/08/17 08:32:18;;;;;;;7.65;2.40;;;;;;;16.94;56.07;99798.56;5008747;28;106040;-69
2021/08/17 08:34:44;;;;;;;4.53;2.08;;;;;;;16.82;56.35;99808.38;5007846;28;106158;-68
2021/08/17 08:37:09;;;;;;;6.50;2.17;;;;;;;16.84;56.24;99800.88;5007300;28;107245;-63
2021/08/17 08:39:35;;;;;;;3.78;1.85;;;;;;;16.80;56.07;99808.59;5007222;28;105986;-66
2021/08/17 08:42:02;;;;;;;3.58;1.90;;;;;;;17.11;56.31;99803.38;5008962;28;105890;-65
2021/08/17 08:44:28;;;;;;;6.30;2.60;;;;;;;17.66;56.07;99802.53;5005078;28;106210;-65
2021/08/17 08:46:54;;;;;;;4.38;1.63;;;;;;;17.80;54.67;99798.63;4988066;28;106621;-71
2021/08/17 08:49:20;;;;;;;4.13;2.03;;;;;;;17.67;54.15;99801.47;4987520;28;106233;-66
2021/08/17 08:51:45;;;;;;;5.05;1.95;;;;;;;17.64;54.30;99785.78;4989072;28;106097;-67
2021/08/17 08:54:11;;;;;;;5.55;2.72;;;;;;;17.44;53.68;99794.91;4988147;28;106294;-66
2021/08/17 08:56:36;;;;;;;3.72;2.22;;;;;;;17.22;54.22;99799.94;4987756;28;106005;-66
2021/08/17 08:59:02;;;;;;;4.10;1.83;;;;;;;17.07;54.15;99802.97;4987154;28;106026;-62
2021/08/17 09:01:27;;;;;;;8.05;2.15;;;;;;;16.98;54.51;99810.53;4988268;28;106130;-62
2021/08/17 09:03:56;;;;;;;5.65;2.30;;;;;;;17.09;54.63;99814.34;4988069;28;106268;-62
2021/08/17 09:06:30;;;;;;;5.22;1.95;;;;;;;17.24;54.11;99817.50;4987066;28;106581;-62
2021/08/17 09:09:16;;;;;;;5.78;1.85;;;;;;;17.24;53.74;99822.06;4986972;28;106456;-61
2021/08/17 09:11:44;;;;;;;2.72;1.65;;;;;;;17.30;53.52;99818.47;4988051;28;106200;-62
2021/08/17 09:14:32;;;;;;;4.95;2.25;;;;;;;17.54;53.34;99818.66;4987077;28;106297;-62
2021/08/17 09:17:00;;;;;;;5.75;1.73;;;;;;;17.74;52.71;99826.47;4987380;28;106738;-61
2021/08/17 09:19:25;;;;;;;7.20;1.83;;;;;;;17.85;52.00;99820.31;4987407;28;106065;-61
2021/08/17 09:21:51;;;;;;;4.50;1.90;;;;;;;17.73;52.13;99811.38;4987741;28;105913;-61
2021/08/17 09:24:34;;;;;;;8.25;2.55;;;;;;;17.59;51.85;99816.06;4987305;28;106141;-62
2021/08/17 09:27:03;;;;;;;6.15;2.60;;;;;;;17.38;52.23;99811.97;4987221;28;106194;-62
2021/08/17 09:29:32;;;;;;;4.03;2.00;;;;;;;17.27;52.24;99818.13;4987073;28;106273;-61
2021/08/17 09:32:02;;;;;;;4.35;1.77;;;;;;;17.20;52.78;99824.38;4988027;28;105931;-62
2021/08/17 09:34:34;;;;;;;5.10;1.80;;;;;;;17.25;52.91;99821.84;4987366;28;106020;-62
2021/08/17 09:37:04;;;;;;;3.95;2.17;;;;;;;17.39;53.09;99816.31;4987140;28;105802;-62
2021/08/17 09:39:41;;;;;;;5.73;2.20;;;;;;;17.54;52.81;99830.22;4986298;28;106182;-63
2021/08/17 09:42:07;;;;;;;3.90;1.60;;;;;;;17.64;52.75;99812.72;4988165;28;105856;-63
2021/08/17 09:44:32;;;;;;;5.88;2.05;;;;;;;17.76;52.66;99813.59;4987855;28;106617;-62
2021/08/17 09:46:58;;;;;;;7.05;2.03;;;;;;;17.92;52.21;99818.41;4989336;28;105866;-62
2021/08/17 09:49:26;;;;;;;4.25;1.90;;;;;;;18.18;52.03;99823.63;4990545;28;105915;-62
2021/08/17 09:51:53;;;;;;;3.10;1.60;;;;;;;18.91;52.11;99822.50;4991047;28;105803;-65
2021/08/17 09:54:21;;;;;;;2.58;1.58;;;;;;;19.64;49.98;99818.66;4990666;28;106231;-64
2021/08/17 09:57:07;;;;;;;4.00;1.50;;;;;;;20.56;48.74;99809.56;4990538;28;106641;-64
2021/08/17 09:59:34;;;;;;;2.95;1.88;;;;;;;21.41;47.16;99824.91;4990094;28;106182;-67
2021/08/17 10:02:01;;;;;;;2.85;2.20;;;;;;;21.05;45.59;99827.09;4989854;28;105870;-63
2021/08/17 10:04:27;;;;;;;3.42;1.83;;;;;;;20.74;45.38;99829.38;4990800;28;106253;-63
2021/08/17 10:06:57;;;;;;;4.57;1.60;;;;;;;20.49;46.05;99829.72;4990448;28;106770;-64
2021/08/17 10:09:23;;;;;;;5.38;2.03;;;;;;;20.89;46.08;99824.19;4989866;28;106641;-63
2021/08/17 10:11:49;;;;;;;4.57;1.52;;;;;;;21.38;44.57;99822.69;4990932;28;105787;-65
2021/08/17 10:14:16;;;;;;;5.22;1.58;;;;;;;21.96;44.42;99826.66;4989781;28;106091;-64
2021/08/17 10:16:43;;;;;;;4.38;1.50;;;;;;;22.39;41.73;99818.72;4988826;28;106096;-65
2021/08/17 10:19:11;;;;;;;3.85;1.55;;;;;;;22.85;41.69;99820.16;4987961;28;106185;-63
2021/08/17 10:21:41;;;;;;;7.57;1.80;;;;;;;22.86;41.11;99816.38;4990566;28;105749;-63
2021/08/17 10:24:28;;;;;;;3.92;1.50;;;;;;;22.39;40.83;99831.47;4990154;28;106186;-63
2021/08/17 10:27:24;;;;;;;2.67;1.45;;;;;;;21.63;41.59;99828.47;4990106;28;106490;-64
2021/08/17 10:29:52;;;;;;;4.65;1.48;;;;;;;21.32;42.49;99834.53;4989920;28;106004;-66
2021/08/17 10:32:36;;;;;;;5.18;1.77;;;;;;;21.08;42.61;99827.44;4990777;28;105855;-66
2021/08/17 10:35:02;;;;;;;6.43;1.50;;;;;;;20.62;43.15;99835.63;4990164;28;106261;-65
2021/08/17 10:37:27;;;;;;;5.07;1.55;;;;;;;20.42;43.99;99829.88;4989936;28;105952;-67
2021/08/17 10:39:53;;;;;;;4.95;1.48;;;;;;;20.54;43.93;99827.91;4989422;28;106089;-66
2021/08/17 10:42:21;;;;;;;2.17;1.40;;;;;;;20.79;43.50;99835.69;4990491;28;106731;-68
2021/08/17 10:44:46;;;;;;;4.30;1.52;;;;;;;21.39;43.23;99824.31;4988541;28;106182;-66
2021/08/17 10:47:29;;;;;;;5.47;1.40;;;;;;;21.08;43.15;99835.56;4973732;28;106030;-66
2021/08/17 10:49:55;;;;;;;4.15;1.27;;;;;;;20.69;43.27;99845.53;4969784;28;105878;-66
2021/08/17 10:52:35;;;;;;;3.60;1.60;;;;;;;20.09;43.89;99826.88;4971945;28;106030;-67
2021/08/17 10:55:19;;;;;;;;;;;;;;;19.82;44.61;99842.03;4988566;28;106177;-68
2021/08/17 10:57:58;;;;;;;3.45;1.20;;;;;;;19.45;44.90;99833.16;4989859;28;106005;-68
2021/08/17 11:00:46;;;;;;;2.17;1.30;;;;;;;19.14;45.69;99847.06;4989501;28;105918;-67
2021/08/17 11:03:12;;;;;;;4.03;1.80;;;;;;;18.89;46.13;99840.81;4990178;28;105962;-67
2021/08/17 11:05:51;;;;;;;3.78;1.55;;;;;;;18.70;46.48;99852.72;4989254;28;105988;-68
2021/08/17 11:08:32;;;;;;;5.18;1.48;;;;;;;18.56;47.39;99842.16;4987364;28;106409;-67
2021/08/17 11:11:03;;;;;;;3.92;1.25;;;;;;;18.57;47.47;99854.56;4988767;28;106017;-67
2021/08/17 11:13:28;;;;;;;4.70;1.70;;;;;;;18.49;47.51;99854.91;4989878;28;105985;-67
2021/08/17 11:16:10;;;;;;;4.22;1.98;;;;;;;18.54;47.67;99865.84;4989584;28;106360;-66
2021/08/17 11:18:52;;;;;;;3.45;1.30;;;;;;;18.69;47.81;99859.19;4988406;28;106718;-67
2021/08/17 11:21:41;;;;;;;3.85;1.77;;;;;;;18.84;47.54;99858.75;4985426;28;106378;-69
2021/08/17 11:24:09;;;;;;;4.55;1.52;;;;;;;18.94;47.08;99862.53;4989837;28;105901;-67
2021/08/17 11:26:37;;;;;;;4.80;1.50;;;;;;;18.93;47.08;99877.09;4989314;28;106091;-65